Ahmeek, Michigan
Current Conditions -  °F | °C
As of 9:53 PM on Friday 21 Nov 2014 (Local Time) from KCMX Reporting Station
Clear Clear  
Wind Chill: 16°   Ceiling: Unl
Heat Index: 27°   Visibility: 10mi
Dew Point: 12°   Wind: 13mph
Humidity: 53%   Direction: 220°SW
Pressure: 29.78"   Gusts: 21mph
Location:  47.3°N, 88.4°W
Report Text: KCMX 220253Z AUTO 22011G18KT 10SM CLR M03/M11 A2978 RMK AO2 SLP105 T10281111 58030
Loading
Personal Weather Stations






























Interactive Weather Map New forecast layout! Learn more

10-Day Weather Forecast

Advertisements
Track Severe Weather on mobile